METAR Data
IDs: Format: Raw Decoded Include TAF

Data at: 0750 UTC 18 Sep 2021

KIPT 180731Z AUTO 00000KT 3SM BR OVC002 19/19 A3011 RMK AO2 T01940189
KIPT 180723Z AUTO 00000KT 1 3/4SM BR OVC002 19/19 A3011 RMK AO2 T01940189
KIPT 180716Z AUTO 08003KT 3SM BR OVC002 19/18 A3010 RMK AO2 T01940183
KIPT 180654Z AUTO 08004KT 2 1/2SM BR OVC002 19/19 A3010 RMK AO2 SLP191 T01940189
KIPT 180646Z AUTO 08004KT 2SM BR OVC002 19/19 A3011 RMK AO2 T01940189
KIPT 180604Z AUTO 00000KT 3/4SM BR OVC002 19/19 A3012 RMK AO2 T01940189
KIPT 180554Z AUTO 06003KT 2 1/2SM BR OVC003 19/19 A3012 RMK AO2 SLP195 T01940189 10222 20194 58004
KIPT 180454Z AUTO 00000KT 10SM OVC004 20/19 A3012 RMK AO2 CIG 002V006 SLP196 T02000189 402500200

KIPT 180609Z 1806/1906 00000KT 3/4SM BR OVC002
  FM181300 00000KT 3SM BR SCT004 OVC015
  FM181500 29006KT P6SM SCT025 BKN050


No METAR found for KUNV

KUNV 180521Z 1806/1906 00000KT 5SM BR SKC
  FM180800 00000KT 1SM BR BKN007
  FM181000 00000KT 3/4SM BR BKN004
  FM181400 VRB02KT 6SM BR SCT020
  FM181600 33005KT P6SM BKN035